sensor_id;sensor_type;location;lat;lon;timestamp;pressure;altitude;pressure_sealevel;temperature;humidity
19827;BME280;10074;52.018;4.726;2023-04-07T00:03:52;46197.19;;;-144.79;100.00
19827;BME280;10074;52.018;4.726;2023-04-07T00:08:52;46181.16;;;-144.79;100.00
19827;BME280;10074;52.018;4.726;2023-04-07T00:13:52;46203.22;;;-144.79;100.00
19827;BME280;10074;52.018;4.726;2023-04-07T00:18:53;46171.13;;;-144.79;100.00
19827;BME280;10074;52.018;4.726;2023-04-07T00:23:53;46195.19;;;-144.79;100.00
19827;BME280;10074;52.018;4.726;2023-04-07T00:28:53;46195.19;;;-144.79;100.00
19827;BME280;10074;52.018;4.726;2023-04-07T00:33:54;46171.13;;;-144.79;100.00
19827;BME280;10074;52.018;4.726;2023-04-07T00:38:56;46203.22;;;-144.79;100.00
19827;BME280;10074;52.018;4.726;2023-04-07T00:43:56;46179.16;;;-144.79;100.00
19827;BME280;10074;52.018;4.726;2023-04-07T00:48:57;46199.19;;;-144.79;100.00
19827;BME280;10074;52.018;4.726;2023-04-07T00:53:58;46211.22;;;-144.79;100.00
19827;BME280;10074;52.018;4.726;2023-04-07T00:58:59;46191.19;;;-144.79;100.00
19827;BME280;10074;52.018;4.726;2023-04-07T01:04:16;46203.22;;;-144.79;100.00
19827;BME280;10074;52.018;4.726;2023-04-07T01:09:29;46201.22;;;-144.79;100.00
19827;BME280;10074;52.018;4.726;2023-04-07T01:14:40;46205.22;;;-144.79;100.00
19827;BME280;10074;52.018;4.726;2023-04-07T01:19:52;46195.19;;;-144.79;100.00
19827;BME280;10074;52.018;4.726;2023-04-07T01:30:02;46191.19;;;-144.79;100.00
19827;BME280;10074;52.018;4.726;2023-04-07T01:35:03;46189.19;;;-144.79;100.00
19827;BME280;10074;52.018;4.726;2023-04-07T01:40:06;46191.19;;;-144.79;100.00
19827;BME280;10074;52.018;4.726;2023-04-07T01:45:08;46189.19;;;-144.79;100.00
19827;BME280;10074;52.018;4.726;2023-04-07T01:50:10;46203.22;;;-144.79;100.00
19827;BME280;10074;52.018;4.726;2023-04-07T01:55:12;46211.22;;;-144.79;100.00
19827;BME280;10074;52.018;4.726;2023-04-07T02:00:13;46183.16;;;-144.79;100.00
19827;BME280;10074;52.018;4.726;2023-04-07T02:05:17;46201.22;;;-144.79;100.00
19827;BME280;10074;52.018;4.726;2023-04-07T02:10:21;46191.19;;;-144.79;100.00
19827;BME280;10074;52.018;4.726;2023-04-07T02:15:22;46195.19;;;-144.79;100.00
19827;BME280;10074;52.018;4.726;2023-04-07T02:20:24;46175.16;;;-144.79;100.00
19827;BME280;10074;52.018;4.726;2023-04-07T02:25:30;46195.19;;;-144.79;100.00
19827;BME280;10074;52.018;4.726;2023-04-07T02:30:31;46193.19;;;-144.79;100.00
19827;BME280;10074;52.018;4.726;2023-04-07T02:35:32;46199.19;;;-144.79;100.00
19827;BME280;10074;52.018;4.726;2023-04-07T02:40:32;46199.19;;;-144.79;100.00
19827;BME280;10074;52.018;4.726;2023-04-07T02:45:32;46199.19;;;-144.79;100.00
19827;BME280;10074;52.018;4.726;2023-04-07T02:50:33;46195.19;;;-144.79;100.00
19827;BME280;10074;52.018;4.726;2023-04-07T02:55:33;46199.19;;;-144.79;100.00
19827;BME280;10074;52.018;4.726;2023-04-07T03:00:33;46187.19;;;-144.79;100.00
19827;BME280;10074;52.018;4.726;2023-04-07T03:05:33;46207.22;;;-144.79;100.00
19827;BME280;10074;52.018;4.726;2023-04-07T03:10:34;46199.19;;;-144.79;100.00
19827;BME280;10074;52.018;4.726;2023-04-07T03:15:35;46185.16;;;-144.79;100.00
19827;BME280;10074;52.018;4.726;2023-04-07T03:20:36;46213.25;;;-144.79;100.00
19827;BME280;10074;52.018;4.726;2023-04-07T03:25:36;46189.19;;;-144.79;100.00
19827;BME280;10074;52.018;4.726;2023-04-07T03:30:37;46187.19;;;-144.79;100.00
19827;BME280;10074;52.018;4.726;2023-04-07T03:35:37;46195.19;;;-144.79;100.00
19827;BME280;10074;52.018;4.726;2023-04-07T03:40:37;46199.19;;;-144.79;100.00
19827;BME280;10074;52.018;4.726;2023-04-07T03:45:37;46181.16;;;-144.79;100.00
19827;BME280;10074;52.018;4.726;2023-04-07T03:50:38;46187.19;;;-144.79;100.00
19827;BME280;10074;52.018;4.726;2023-04-07T03:55:39;46197.19;;;-144.79;100.00
19827;BME280;10074;52.018;4.726;2023-04-07T04:00:39;46207.22;;;-144.79;100.00
19827;BME280;10074;52.018;4.726;2023-04-07T04:05:39;46217.25;;;-144.79;100.00
19827;BME280;10074;52.018;4.726;2023-04-07T04:10:40;46201.22;;;-144.79;100.00
19827;BME280;10074;52.018;4.726;2023-04-07T04:15:40;46191.19;;;-144.79;100.00
19827;BME280;10074;52.018;4.726;2023-04-07T04:20:41;46211.22;;;-144.79;100.00
19827;BME280;10074;52.018;4.726;2023-04-07T04:25:42;46197.19;;;-144.79;100.00
19827;BME280;10074;52.018;4.726;2023-04-07T04:30:42;46199.19;;;-144.79;100.00
19827;BME280;10074;52.018;4.726;2023-04-07T04:35:44;46203.22;;;-144.79;100.00
19827;BME280;10074;52.018;4.726;2023-04-07T04:40:44;46209.22;;;-144.79;100.00
19827;BME280;10074;52.018;4.726;2023-04-07T04:45:44;46211.22;;;-144.79;100.00
19827;BME280;10074;52.018;4.726;2023-04-07T04:50:45;46195.19;;;-144.79;100.00
19827;BME280;10074;52.018;4.726;2023-04-07T04:55:45;46191.19;;;-144.79;100.00
19827;BME280;10074;52.018;4.726;2023-04-07T05:00:46;46199.19;;;-144.79;100.00
19827;BME280;10074;52.018;4.726;2023-04-07T05:05:46;46209.22;;;-144.79;100.00
19827;BME280;10074;52.018;4.726;2023-04-07T05:10:47;46193.19;;;-144.79;100.00
19827;BME280;10074;52.018;4.726;2023-04-07T05:15:48;46197.19;;;-144.79;100.00
19827;BME280;10074;52.018;4.726;2023-04-07T05:20:48;46185.16;;;-144.79;100.00
19827;BME280;10074;52.018;4.726;2023-04-07T05:25:49;46191.19;;;-144.79;100.00
19827;BME280;10074;52.018;4.726;2023-04-07T05:30:49;46177.16;;;-144.79;100.00
19827;BME280;10074;52.018;4.726;2023-04-07T05:35:50;46191.19;;;-144.79;100.00
19827;BME280;10074;52.018;4.726;2023-04-07T05:40:50;46205.22;;;-144.79;100.00
19827;BME280;10074;52.018;4.726;2023-04-07T05:45:50;46193.19;;;-144.79;100.00
19827;BME280;10074;52.018;4.726;2023-04-07T05:50:51;46191.19;;;-144.79;100.00
19827;BME280;10074;52.018;4.726;2023-04-07T05:55:51;46187.19;;;-144.79;100.00
19827;BME280;10074;52.018;4.726;2023-04-07T06:00:51;46187.19;;;-144.79;100.00
19827;BME280;10074;52.018;4.726;2023-04-07T06:05:51;46199.19;;;-144.79;100.00
19827;BME280;10074;52.018;4.726;2023-04-07T06:10:52;46199.19;;;-144.79;100.00
19827;BME280;10074;52.018;4.726;2023-04-07T06:15:54;46191.19;;;-144.79;100.00
19827;BME280;10074;52.018;4.726;2023-04-07T06:20:55;46193.19;;;-144.79;100.00
19827;BME280;10074;52.018;4.726;2023-04-07T06:25:56;46187.19;;;-144.79;100.00
19827;BME280;10074;52.018;4.726;2023-04-07T06:30:57;46187.19;;;-144.79;100.00
19827;BME280;10074;52.018;4.726;2023-04-07T06:35:57;46167.13;;;-144.79;100.00
19827;BME280;10074;52.018;4.726;2023-04-07T06:40:57;46171.13;;;-144.79;100.00
19827;BME280;10074;52.018;4.726;2023-04-07T06:45:58;46167.13;;;-144.79;100.00
19827;BME280;10074;52.018;4.726;2023-04-07T06:50:58;46183.16;;;-144.79;100.00
19827;BME280;10074;52.018;4.726;2023-04-07T06:56:03;46163.13;;;-144.79;100.00
19827;BME280;10074;52.018;4.726;2023-04-07T07:01:04;46165.13;;;-144.79;100.00
19827;BME280;10074;52.018;4.726;2023-04-07T07:06:05;46183.16;;;-144.79;100.00
19827;BME280;10074;52.018;4.726;2023-04-07T07:11:05;46175.16;;;-144.79;100.00
19827;BME280;10074;52.018;4.726;2023-04-07T07:16:06;46171.13;;;-144.79;100.00
19827;BME280;10074;52.018;4.726;2023-04-07T07:21:07;46173.13;;;-144.79;100.00
19827;BME280;10074;52.018;4.726;2023-04-07T07:26:07;46169.13;;;-144.79;100.00
19827;BME280;10074;52.018;4.726;2023-04-07T07:31:09;46195.19;;;-144.79;100.00
19827;BME280;10074;52.018;4.726;2023-04-07T07:36:10;46179.16;;;-144.79;100.00
19827;BME280;10074;52.018;4.726;2023-04-07T07:41:11;46181.16;;;-144.79;100.00
19827;BME280;10074;52.018;4.726;2023-04-07T07:46:11;46185.16;;;-144.79;100.00
19827;BME280;10074;52.018;4.726;2023-04-07T07:51:12;46193.19;;;-144.79;100.00
19827;BME280;10074;52.018;4.726;2023-04-07T07:56:12;46189.19;;;-144.79;100.00
19827;BME280;10074;52.018;4.726;2023-04-07T08:01:13;46181.16;;;-144.79;100.00
19827;BME280;10074;52.018;4.726;2023-04-07T08:06:13;46183.16;;;-144.79;100.00
19827;BME280;10074;52.018;4.726;2023-04-07T08:11:13;46195.19;;;-144.79;100.00
19827;BME280;10074;52.018;4.726;2023-04-07T08:16:13;46187.19;;;-144.79;100.00
19827;BME280;10074;52.018;4.726;2023-04-07T08:21:14;46191.19;;;-144.79;100.00
19827;BME280;10074;52.018;4.726;2023-04-07T08:26:15;46235.28;;;-144.79;100.00
19827;BME280;10074;52.018;4.726;2023-04-07T08:31:15;46235.28;;;-144.79;100.00
19827;BME280;10074;52.018;4.726;2023-04-07T08:36:15;46247.31;;;-144.79;100.00
19827;BME280;10074;52.018;4.726;2023-04-07T08:41:19;46239.31;;;-144.79;100.00
19827;BME280;10074;52.018;4.726;2023-04-07T08:46:21;46235.28;;;-144.79;100.00
19827;BME280;10074;52.018;4.726;2023-04-07T08:51:29;46235.28;;;-144.79;100.00
19827;BME280;10074;52.018;4.726;2023-04-07T08:56:32;46247.31;;;-144.79;100.00
19827;BME280;10074;52.018;4.726;2023-04-07T09:01:34;46235.28;;;-144.79;100.00
19827;BME280;10074;52.018;4.726;2023-04-07T09:06:36;46223.25;;;-144.79;100.00
19827;BME280;10074;52.018;4.726;2023-04-07T09:11:38;46243.31;;;-144.79;100.00
19827;BME280;10074;52.018;4.726;2023-04-07T09:16:39;46237.31;;;-144.79;100.00
19827;BME280;10074;52.018;4.726;2023-04-07T09:21:50;46241.31;;;-144.79;100.00
19827;BME280;10074;52.018;4.726;2023-04-07T09:32:40;46247.31;;;-144.79;100.00
19827;BME280;10074;52.018;4.726;2023-04-07T09:37:41;46233.28;;;-144.79;100.00
19827;BME280;10074;52.018;4.726;2023-04-07T09:42:45;46231.28;;;-144.79;100.00
19827;BME280;10074;52.018;4.726;2023-04-07T09:47:45;46241.31;;;-144.79;100.00
19827;BME280;10074;52.018;4.726;2023-04-07T09:52:52;46249.34;;;-144.79;100.00
19827;BME280;10074;52.018;4.726;2023-04-07T09:57:53;46239.31;;;-144.79;100.00
19827;BME280;10074;52.018;4.726;2023-04-07T10:02:57;46245.31;;;-144.79;100.00
19827;BME280;10074;52.018;4.726;2023-04-07T10:07:59;46247.31;;;-144.79;100.00
19827;BME280;10074;52.018;4.726;2023-04-07T10:13:03;46247.31;;;-144.79;100.00
19827;BME280;10074;52.018;4.726;2023-04-07T10:18:04;46245.31;;;-144.79;100.00
19827;BME280;10074;52.018;4.726;2023-04-07T10:23:14;46231.28;;;-144.79;100.00
19827;BME280;10074;52.018;4.726;2023-04-07T10:28:16;46231.28;;;-144.79;100.00
19827;BME280;10074;52.018;4.726;2023-04-07T10:33:45;46239.31;;;-144.79;100.00
19827;BME280;10074;52.018;4.726;2023-04-07T10:44:09;46237.31;;;-144.79;100.00
19827;BME280;10074;52.018;4.726;2023-04-07T10:49:33;46231.28;;;-144.79;100.00
19827;BME280;10074;52.018;4.726;2023-04-07T10:54:34;46229.28;;;-144.79;100.00
19827;BME280;10074;52.018;4.726;2023-04-07T10:59:35;46237.31;;;-144.79;100.00
19827;BME280;10074;52.018;4.726;2023-04-07T11:04:37;46247.31;;;-144.79;100.00
19827;BME280;10074;52.018;4.726;2023-04-07T11:09:39;46257.34;;;-144.79;100.00
19827;BME280;10074;52.018;4.726;2023-04-07T11:14:40;46245.31;;;-144.79;100.00
19827;BME280;10074;52.018;4.726;2023-04-07T11:19:51;46245.31;;;-144.79;100.00
19827;BME280;10074;52.018;4.726;2023-04-07T11:24:51;46239.31;;;-144.79;100.00
19827;BME280;10074;52.018;4.726;2023-04-07T11:29:52;46243.31;;;-144.79;100.00
19827;BME280;10074;52.018;4.726;2023-04-07T11:34:52;46239.31;;;-144.79;100.00
19827;BME280;10074;52.018;4.726;2023-04-07T11:39:56;46243.31;;;-144.79;100.00
19827;BME280;10074;52.018;4.726;2023-04-07T11:44:57;46239.31;;;-144.79;100.00
19827;BME280;10074;52.018;4.726;2023-04-07T11:49:57;46239.31;;;-144.79;100.00
19827;BME280;10074;52.018;4.726;2023-04-07T11:54:58;46239.31;;;-144.79;100.00
19827;BME280;10074;52.018;4.726;2023-04-07T12:00:09;46239.31;;;-144.79;100.00
19827;BME280;10074;52.018;4.726;2023-04-07T12:05:10;46237.31;;;-144.79;100.00
19827;BME280;10074;52.018;4.726;2023-04-07T12:10:20;46243.31;;;-144.79;100.00
19827;BME280;10074;52.018;4.726;2023-04-07T12:15:21;46237.31;;;-144.79;100.00
19827;BME280;10074;52.018;4.726;2023-04-07T12:20:22;46239.31;;;-144.79;100.00
19827;BME280;10074;52.018;4.726;2023-04-07T12:25:22;46241.31;;;-144.79;100.00
19827;BME280;10074;52.018;4.726;2023-04-07T12:30:22;46239.31;;;-144.79;100.00
19827;BME280;10074;52.018;4.726;2023-04-07T12:35:23;46239.31;;;-144.79;100.00
19827;BME280;10074;52.018;4.726;2023-04-07T12:40:23;46223.25;;;-144.79;100.00
19827;BME280;10074;52.018;4.726;2023-04-07T12:45:23;46235.28;;;-144.79;100.00
19827;BME280;10074;52.018;4.726;2023-04-07T12:50:24;46237.31;;;-144.79;100.00
19827;BME280;10074;52.018;4.726;2023-04-07T12:55:24;46223.25;;;-144.79;100.00
19827;BME280;10074;52.018;4.726;2023-04-07T13:00:25;46223.25;;;-144.79;100.00
19827;BME280;10074;52.018;4.726;2023-04-07T13:05:25;46235.28;;;-144.79;100.00
19827;BME280;10074;52.018;4.726;2023-04-07T13:10:26;46227.28;;;-144.79;100.00
19827;BME280;10074;52.018;4.726;2023-04-07T13:15:26;46237.31;;;-144.79;100.00
19827;BME280;10074;52.018;4.726;2023-04-07T13:20:28;46227.28;;;-144.79;100.00
19827;BME280;10074;52.018;4.726;2023-04-07T13:25:29;46239.31;;;-144.79;100.00
19827;BME280;10074;52.018;4.726;2023-04-07T13:30:30;46233.28;;;-144.79;100.00
19827;BME280;10074;52.018;4.726;2023-04-07T13:35:30;46227.28;;;-144.79;100.00
19827;BME280;10074;52.018;4.726;2023-04-07T13:40:34;46239.31;;;-144.79;100.00
19827;BME280;10074;52.018;4.726;2023-04-07T13:45:34;46235.28;;;-144.79;100.00
19827;BME280;10074;52.018;4.726;2023-04-07T13:50:36;46227.28;;;-144.79;100.00
19827;BME280;10074;52.018;4.726;2023-04-07T13:55:36;46231.28;;;-144.79;100.00
19827;BME280;10074;52.018;4.726;2023-04-07T14:00:37;46239.31;;;-144.79;100.00
19827;BME280;10074;52.018;4.726;2023-04-07T14:05:37;46239.31;;;-144.79;100.00
19827;BME280;10074;52.018;4.726;2023-04-07T14:10:38;46223.25;;;-144.79;100.00
19827;BME280;10074;52.018;4.726;2023-04-07T14:15:39;46235.28;;;-144.79;100.00
19827;BME280;10074;52.018;4.726;2023-04-07T14:20:39;46219.25;;;-144.79;100.00
19827;BME280;10074;52.018;4.726;2023-04-07T14:25:39;46213.25;;;-144.79;100.00
19827;BME280;10074;52.018;4.726;2023-04-07T14:30:40;46227.28;;;-144.79;100.00
19827;BME280;10074;52.018;4.726;2023-04-07T14:35:40;46229.28;;;-144.79;100.00
19827;BME280;10074;52.018;4.726;2023-04-07T14:40:40;46219.25;;;-144.79;100.00
19827;BME280;10074;52.018;4.726;2023-04-07T14:45:41;46227.28;;;-144.79;100.00
19827;BME280;10074;52.018;4.726;2023-04-07T14:50:41;46229.28;;;-144.79;100.00
19827;BME280;10074;52.018;4.726;2023-04-07T14:55:41;46219.25;;;-144.79;100.00
19827;BME280;10074;52.018;4.726;2023-04-07T15:00:42;46225.28;;;-144.79;100.00
19827;BME280;10074;52.018;4.726;2023-04-07T15:05:42;46223.25;;;-144.79;100.00
19827;BME280;10074;52.018;4.726;2023-04-07T15:10:42;46221.25;;;-144.79;100.00
19827;BME280;10074;52.018;4.726;2023-04-07T15:15:43;46219.25;;;-144.79;100.00
19827;BME280;10074;52.018;4.726;2023-04-07T15:20:43;46217.25;;;-144.79;100.00
19827;BME280;10074;52.018;4.726;2023-04-07T15:25:43;46219.25;;;-144.79;100.00
19827;BME280;10074;52.018;4.726;2023-04-07T15:30:43;46215.25;;;-144.79;100.00
19827;BME280;10074;52.018;4.726;2023-04-07T15:35:46;46227.28;;;-144.79;100.00
19827;BME280;10074;52.018;4.726;2023-04-07T15:40:46;46219.25;;;-144.79;100.00
19827;BME280;10074;52.018;4.726;2023-04-07T15:45:47;46225.28;;;-144.79;100.00
19827;BME280;10074;52.018;4.726;2023-04-07T15:50:47;46219.25;;;-144.79;100.00
19827;BME280;10074;52.018;4.726;2023-04-07T15:55:47;46223.25;;;-144.79;100.00
19827;BME280;10074;52.018;4.726;2023-04-07T16:00:48;46231.28;;;-144.79;100.00
19827;BME280;10074;52.018;4.726;2023-04-07T16:05:48;46229.28;;;-144.79;100.00
19827;BME280;10074;52.018;4.726;2023-04-07T16:10:50;46223.25;;;-144.79;100.00
19827;BME280;10074;52.018;4.726;2023-04-07T16:15:54;46235.28;;;-144.79;100.00
19827;BME280;10074;52.018;4.726;2023-04-07T16:20:56;46233.28;;;-144.79;100.00
19827;BME280;10074;52.018;4.726;2023-04-07T16:25:56;46225.28;;;-144.79;100.00
19827;BME280;10074;52.018;4.726;2023-04-07T16:30:56;46231.28;;;-144.79;100.00
19827;BME280;10074;52.018;4.726;2023-04-07T16:35:57;46233.28;;;-144.79;100.00
19827;BME280;10074;52.018;4.726;2023-04-07T16:40:57;46235.28;;;-144.79;100.00
19827;BME280;10074;52.018;4.726;2023-04-07T16:45:57;46233.28;;;-144.79;100.00
19827;BME280;10074;52.018;4.726;2023-04-07T16:50:58;46227.28;;;-144.79;100.00
19827;BME280;10074;52.018;4.726;2023-04-07T16:55:59;46233.28;;;-144.79;100.00
19827;BME280;10074;52.018;4.726;2023-04-07T17:00:59;46241.31;;;-144.79;100.00
19827;BME280;10074;52.018;4.726;2023-04-07T17:06:00;46233.28;;;-144.79;100.00
19827;BME280;10074;52.018;4.726;2023-04-07T17:11:05;46227.28;;;-144.79;100.00
19827;BME280;10074;52.018;4.726;2023-04-07T17:16:11;46223.25;;;-144.79;100.00
19827;BME280;10074;52.018;4.726;2023-04-07T17:21:13;46229.28;;;-144.79;100.00
19827;BME280;10074;52.018;4.726;2023-04-07T17:26:14;46237.31;;;-144.79;100.00
19827;BME280;10074;52.018;4.726;2023-04-07T17:31:15;46235.28;;;-144.79;100.00
19827;BME280;10074;52.018;4.726;2023-04-07T17:36:15;46235.28;;;-144.79;100.00
19827;BME280;10074;52.018;4.726;2023-04-07T17:41:17;46229.28;;;-144.79;100.00
19827;BME280;10074;52.018;4.726;2023-04-07T17:46:20;46231.28;;;-144.79;100.00
19827;BME280;10074;52.018;4.726;2023-04-07T17:51:20;46231.28;;;-144.79;100.00
19827;BME280;10074;52.018;4.726;2023-04-07T17:56:21;46227.28;;;-144.79;100.00
19827;BME280;10074;52.018;4.726;2023-04-07T18:01:24;46235.28;;;-144.79;100.00
19827;BME280;10074;52.018;4.726;2023-04-07T18:06:24;46233.28;;;-144.79;100.00
19827;BME280;10074;52.018;4.726;2023-04-07T18:11:24;46241.31;;;-144.79;100.00
19827;BME280;10074;52.018;4.726;2023-04-07T18:16:25;46233.28;;;-144.79;100.00
19827;BME280;10074;52.018;4.726;2023-04-07T18:21:25;46235.28;;;-144.79;100.00
19827;BME280;10074;52.018;4.726;2023-04-07T18:26:26;46223.25;;;-144.79;100.00
19827;BME280;10074;52.018;4.726;2023-04-07T18:31:26;46229.28;;;-144.79;100.00
19827;BME280;10074;52.018;4.726;2023-04-07T18:36:27;46225.28;;;-144.79;100.00
19827;BME280;10074;52.018;4.726;2023-04-07T18:41:27;46225.28;;;-144.79;100.00
19827;BME280;10074;52.018;4.726;2023-04-07T18:46:27;46243.31;;;-144.79;100.00
19827;BME280;10074;52.018;4.726;2023-04-07T18:51:28;46239.31;;;-144.79;100.00
19827;BME280;10074;52.018;4.726;2023-04-07T18:56:29;46229.28;;;-144.79;100.00
19827;BME280;10074;52.018;4.726;2023-04-07T19:01:30;46225.28;;;-144.79;100.00
19827;BME280;10074;52.018;4.726;2023-04-07T19:06:30;46239.31;;;-144.79;100.00
19827;BME280;10074;52.018;4.726;2023-04-07T19:11:31;46231.28;;;-144.79;100.00
19827;BME280;10074;52.018;4.726;2023-04-07T19:16:32;46231.28;;;-144.79;100.00
19827;BME280;10074;52.018;4.726;2023-04-07T19:21:33;46229.28;;;-144.79;100.00
19827;BME280;10074;52.018;4.726;2023-04-07T19:26:33;46219.25;;;-144.79;100.00
19827;BME280;10074;52.018;4.726;2023-04-07T19:31:34;46221.25;;;-144.79;100.00
19827;BME280;10074;52.018;4.726;2023-04-07T19:36:35;46235.28;;;-144.79;100.00
19827;BME280;10074;52.018;4.726;2023-04-07T19:41:35;46219.25;;;-144.79;100.00
19827;BME280;10074;52.018;4.726;2023-04-07T19:46:35;46225.28;;;-144.79;100.00
19827;BME280;10074;52.018;4.726;2023-04-07T19:51:36;46231.28;;;-144.79;100.00
19827;BME280;10074;52.018;4.726;2023-04-07T19:56:36;46223.25;;;-144.79;100.00
19827;BME280;10074;52.018;4.726;2023-04-07T20:01:37;46223.25;;;-144.79;100.00
19827;BME280;10074;52.018;4.726;2023-04-07T20:06:37;46225.28;;;-144.79;100.00
19827;BME280;10074;52.018;4.726;2023-04-07T20:11:39;46223.25;;;-144.79;100.00
19827;BME280;10074;52.018;4.726;2023-04-07T20:16:39;46225.28;;;-144.79;100.00
19827;BME280;10074;52.018;4.726;2023-04-07T20:21:40;46225.28;;;-144.79;100.00
19827;BME280;10074;52.018;4.726;2023-04-07T20:26:40;46223.25;;;-144.79;100.00
19827;BME280;10074;52.018;4.726;2023-04-07T20:31:41;46247.31;;;-144.79;100.00
19827;BME280;10074;52.018;4.726;2023-04-07T20:36:41;46231.28;;;-144.79;100.00
19827;BME280;10074;52.018;4.726;2023-04-07T20:41:42;46231.28;;;-144.79;100.00
19827;BME280;10074;52.018;4.726;2023-04-07T20:46:44;46227.28;;;-144.79;100.00
19827;BME280;10074;52.018;4.726;2023-04-07T20:51:47;46231.28;;;-144.79;100.00
19827;BME280;10074;52.018;4.726;2023-04-07T20:56:48;46219.25;;;-144.79;100.00
19827;BME280;10074;52.018;4.726;2023-04-07T21:01:48;46239.31;;;-144.79;100.00
19827;BME280;10074;52.018;4.726;2023-04-07T21:06:48;46231.28;;;-144.79;100.00
19827;BME280;10074;52.018;4.726;2023-04-07T21:11:49;46231.28;;;-144.79;100.00
19827;BME280;10074;52.018;4.726;2023-04-07T21:16:49;46225.28;;;-144.79;100.00
19827;BME280;10074;52.018;4.726;2023-04-07T21:21:49;46227.28;;;-144.79;100.00
19827;BME280;10074;52.018;4.726;2023-04-07T21:26:52;46229.28;;;-144.79;100.00
19827;BME280;10074;52.018;4.726;2023-04-07T21:31:52;46235.28;;;-144.79;100.00
19827;BME280;10074;52.018;4.726;2023-04-07T21:36:53;46237.31;;;-144.79;100.00
19827;BME280;10074;52.018;4.726;2023-04-07T21:41:53;46227.28;;;-144.79;100.00
19827;BME280;10074;52.018;4.726;2023-04-07T21:46:53;46223.25;;;-144.79;100.00
19827;BME280;10074;52.018;4.726;2023-04-07T21:51:54;46247.31;;;-144.79;100.00
19827;BME280;10074;52.018;4.726;2023-04-07T21:56:54;46243.31;;;-144.79;100.00
19827;BME280;10074;52.018;4.726;2023-04-07T22:01:54;46221.25;;;-144.79;100.00
19827;BME280;10074;52.018;4.726;2023-04-07T22:06:55;46239.31;;;-144.79;100.00
19827;BME280;10074;52.018;4.726;2023-04-07T22:11:55;46225.28;;;-144.79;100.00
19827;BME280;10074;52.018;4.726;2023-04-07T22:16:56;46235.28;;;-144.79;100.00
19827;BME280;10074;52.018;4.726;2023-04-07T22:21:56;46235.28;;;-144.79;100.00
19827;BME280;10074;52.018;4.726;2023-04-07T22:26:56;46231.28;;;-144.79;100.00
19827;BME280;10074;52.018;4.726;2023-04-07T22:31:57;46235.28;;;-144.79;100.00
19827;BME280;10074;52.018;4.726;2023-04-07T22:36:58;46223.25;;;-144.79;100.00
19827;BME280;10074;52.018;4.726;2023-04-07T22:41:58;46227.28;;;-144.79;100.00
19827;BME280;10074;52.018;4.726;2023-04-07T22:46:58;46219.25;;;-144.79;100.00
19827;BME280;10074;52.018;4.726;2023-04-07T22:51:59;46229.28;;;-144.79;100.00
19827;BME280;10074;52.018;4.726;2023-04-07T22:56:59;46229.28;;;-144.79;100.00
19827;BME280;10074;52.018;4.726;2023-04-07T23:02:00;46233.28;;;-144.79;100.00
19827;BME280;10074;52.018;4.726;2023-04-07T23:07:01;46223.25;;;-144.79;100.00
19827;BME280;10074;52.018;4.726;2023-04-07T23:12:01;46223.25;;;-144.79;100.00
19827;BME280;10074;52.018;4.726;2023-04-07T23:17:01;46229.28;;;-144.79;100.00
19827;BME280;10074;52.018;4.726;2023-04-07T23:22:02;46227.28;;;-144.79;100.00
19827;BME280;10074;52.018;4.726;2023-04-07T23:27:02;46239.31;;;-144.79;100.00
19827;BME280;10074;52.018;4.726;2023-04-07T23:32:02;46227.28;;;-144.79;100.00
19827;BME280;10074;52.018;4.726;2023-04-07T23:37:03;46231.28;;;-144.79;100.00
19827;BME280;10074;52.018;4.726;2023-04-07T23:42:03;46233.28;;;-144.79;100.00
19827;BME280;10074;52.018;4.726;2023-04-07T23:47:04;46221.25;;;-144.79;100.00
19827;BME280;10074;52.018;4.726;2023-04-07T23:52:05;46235.28;;;-144.79;100.00
19827;BME280;10074;52.018;4.726;2023-04-07T23:57:05;46237.31;;;-144.79;100.00
